関西国際空港の過去48時間の天気

関西国際空港 (Kansai intl)

現在時刻: 2/19 04:34 JST (2/18 19:34 UTC) 以下の時間は現地時間です。

過去48時間のMETAR気象情報
時間 風向 風速(m/s) 視程 気温(℃) 湿度(%) 気圧(hPa) 天気現象
19 04:00 東北東 4 10km以上 9 66 1023 弱い雨
19 03:30 東北東 3 10km以上 9 66 1024
19 03:00 東北東 3 10km以上 9 66 1024
19 02:30 3 9000m 9 71 1024
19 02:00 東北東 3 10km以上 9 71 1024
19 01:30 東北東 3 10km以上 9 71 1024
19 01:00 東北東 2 10km以上 9 71 1025
19 00:30 1 10km以上 9 66 1025
19 00:00 南南東 1 10km以上 9 66 1025
18 23:30 1 10km以上 9 71 1026
18 23:00 不定 1 10km以上 9 66 1026
18 22:30 南東 1 10km以上 9 71 1026
18 22:00 2 10km以上 9 66 1027
18 21:30 2 10km以上 8 76 1026
18 21:00 南南東 2 10km以上 9 71 1026
18 20:30 南南東 2 10km以上 9 71 1026
18 20:00 不定 1 10km以上 9 71 1026
18 19:30 不定 1 10km以上 10 54 1026
18 19:00 不定 1 10km以上 9 57 1025
18 18:30 北西 2 10km以上 10 54 1025
18 18:00 北北西 2 10km以上 9 57 1025
18 17:30 北北西 2 10km以上 10 54 1024
18 17:00 3 10km以上 10 50 1024
18 16:30 4 10km以上 10 50 1024
18 16:00 4 10km以上 11 43 1025
18 15:30 4 10km以上 11 47 1025
18 15:00 4 10km以上 11 43 1025
18 14:30 3 10km以上 11 47 1025
18 14:00 3 10km以上 11 43 1025
18 13:30 北北西 4 10km以上 10 46 1025
18 13:00 北北西 3 10km以上 10 46 1026
18 12:30 3 10km以上 10 50 1026
18 12:00 3 10km以上 9 57 1026
18 11:30 北北西 3 10km以上 9 57 1027
18 11:00 北北西 3 10km以上 8 57 1027
18 10:30 2 10km以上 8 61 1027
18 07:30 2 10km以上 5 81 1026
18 07:00 2 10km以上 5 75 1026
18 06:30 東北東 3 10km以上 5 81 1025
18 06:00 東北東 3 10km以上 3 81 1025
18 05:30 3 10km以上 4 81 1024
18 05:00 2 10km以上 4 75 1024
18 04:30 東南東 3 10km以上 5 75 1024
18 04:00 東南東 2 10km以上 5 75 1024
18 03:30 東南東 2 10km以上 5 75 1024
18 03:00 東南東 3 10km以上 5 75 1024
18 02:30 2 10km以上 5 75 1024
18 02:00 東南東 2 10km以上 5 70 1024
18 01:30 南東 2 10km以上 5 75 1024
18 01:00 東南東 2 10km以上 6 70 1024
18 00:30 東南東 3 10km以上 6 70 1023
18 00:00 3 10km以上 6 70 1023
17 23:30 4 10km以上 6 70 1023
17 23:00 4 10km以上 6 70 1023
17 22:30 3 10km以上 6 70 1023
17 22:00 北東 5 10km以上 6 70 1023
17 21:30 北東 5 10km以上 6 61 1023
17 21:00 北北東 5 10km以上 6 61 1022
17 20:30 北東 4 10km以上 6 61 1022
17 20:00 東北東 3 10km以上 6 61 1022
17 19:30 北東 3 10km以上 6 65 1022
17 19:00 北北東 3 10km以上 6 70 1021
17 18:30 2 10km以上 7 61 1021
17 18:00 2 10km以上 6 65 1021
17 17:30 4 10km以上 7 61 1020
17 17:00 4 10km以上 7 61 1020 周辺でしゅう雨
17 16:30 3 10km以上 8 57 1020 周辺でしゅう雨
17 16:00 北北西 2 10km以上 8 57 1020 周辺でしゅう雨
17 15:30 北西 2 10km以上 7 57 1020
17 15:00 北西 2 10km以上 7 61 1020
17 14:30 北西 3 10km以上 8 57 1019 弱いしゅう雨
17 14:00 西 2 10km以上 8 61 1019 周辺でしゅう雨
17 13:30 2 10km以上 7 61 1019 周辺でしゅう雨
17 13:00 不定 1 10km以上 7 61 1020
17 12:30 不定 1 10km以上 7 61 1020
17 12:00 不定 1 10km以上 7 66 1020
17 11:30 2 10km以上 7 61 1020
17 11:00 3 10km以上 7 61 1021 弱いしゅう雨
17 10:30 北東 2 10km以上 6 65 1021 弱いしゅう雨
17 10:00 不定 1 10km以上 6 65 1021 弱いしゅう雨
17 09:30 北東 3 10km以上 6 65 1020 周辺でしゅう雨
17 09:00 北東 3 10km以上 6 70 1020 弱いしゅう雨
17 08:30 北東 3 10km以上 6 70 1020
17 08:00 北東 5 10km以上 5 70 1020
17 07:30 北北東 2 10km以上 5 70 1020
17 07:00 3 10km以上 5 70 1019
17 06:30 5 10km以上 5 65 1019
17 06:00 5 10km以上 5 65 1019
17 05:30 6 10km以上 5 65 1018
17 05:00 6 10km以上 5 65 1018
RJBB 181900Z AUTO 07007KT 9999 -RA FEW035 BKN070 OVC080 09/03 Q1023 NOSIG
RJBB 181830Z AUTO 07006KT 9999 FEW039 BKN070 OVC090 09/03 Q1024 NOSIG
RJBB 181800Z AUTO 07006KT 9999 NSC 09/03 Q1024 NOSIG
RJBB 181730Z AUTO 08005KT 9000 NSC 09/04 Q1024 NOSIG
RJBB 181700Z AUTO 07005KT 9999 NSC 09/04 Q1024 NOSIG
RJBB 181630Z AUTO 07006KT 9999 NSC 09/04 Q1024 NOSIG
RJBB 181600Z AUTO 07004KT 9999 NSC 09/04 Q1025 NOSIG
RJBB 181530Z AUTO 08002KT 9999 NSC 09/03 Q1025 NOSIG
RJBB 181500Z AUTO 15001KT 9999 NSC 09/03 Q1025 NOSIG
RJBB 181430Z AUTO 10002KT 9999 NSC 09/04 Q1026 NOSIG
RJBB 181400Z AUTO VRB01KT 9999 NSC 09/03 Q1026 NOSIG
RJBB 181330Z 14002KT CAVOK 09/04 Q1026 NOSIG
RJBB 181300Z 19003KT CAVOK 09/03 Q1027 NOSIG
RJBB 181230Z 17004KT 060V210 CAVOK 08/04 Q1026 NOSIG
RJBB 181200Z 16003KT CAVOK 09/04 Q1026 NOSIG
RJBB 181130Z 16003KT CAVOK 09/04 Q1026 NOSIG
RJBB 181100Z VRB02KT CAVOK 09/04 Q1026 NOSIG
RJBB 181030Z VRB01KT CAVOK 10/01 Q1026 NOSIG
RJBB 181000Z VRB02KT CAVOK 09/01 Q1025 NOSIG
RJBB 180930Z 32004KT CAVOK 10/01 Q1025 NOSIG
RJBB 180900Z 33004KT 9999 FEW030 BKN/// 09/01 Q1025 BECMG 24005KT
RJBB 180830Z 34004KT 9999 FEW030 BKN/// 10/01 Q1024 BECMG 24005KT
RJBB 180800Z 36006KT 9999 FEW030 BKN/// 10/M00 Q1024 NOSIG
RJBB 180730Z 36007KT 9999 FEW030 BKN/// 10/M00 Q1024 NOSIG
RJBB 180700Z 36007KT 9999 FEW030 BKN/// 11/M01 Q1025 NOSIG
RJBB 180630Z 36007KT 9999 FEW030 BKN/// 11/M00 Q1025 NOSIG
RJBB 180600Z 35008KT 9999 FEW040 BKN/// 11/M01 Q1025 NOSIG
RJBB 180530Z 35006KT 9999 FEW030 BKN/// 11/M00 Q1025 NOSIG
RJBB 180500Z 35005KT 330V040 9999 FEW030 BKN/// 11/M01 Q1025 NOSIG
RJBB 180430Z 34008KT 9999 FEW030 BKN/// 10/M01 Q1025 NOSIG
RJBB 180400Z 34005KT 9999 FEW030 BKN/// 10/M01 Q1026 NOSIG
RJBB 180330Z 35005KT 9999 FEW030 BKN/// 10/00 Q1026 NOSIG
RJBB 180300Z 35005KT 9999 FEW025 BKN/// 09/01 Q1026 NOSIG
RJBB 180230Z 33006KT 9999 FEW025 BKN/// 09/01 Q1027 NOSIG
RJBB 180200Z 33005KT 280V040 9999 FEW025 BKN/// 08/00 Q1027 NOSIG
RJBB 180130Z 35003KT 9999 FEW025 BKN/// 08/01 Q1027 NOSIG
RJBB 172230Z 10003KT 9999 FEW025 BKN/// 05/02 Q1026 NOSIG
RJBB 172200Z 10003KT 070V130 9999 FEW025 BKN/// 05/01 Q1026 NOSIG
RJBB 172130Z 07006KT 9999 FEW025 05/02 Q1025 NOSIG
RJBB 172100Z 06005KT CAVOK 03/00 Q1025 NOSIG
RJBB 172030Z AUTO 09005KT 9999 NCD 04/01 Q1024 NOSIG
RJBB 172000Z AUTO 10003KT 9999 NCD 04/M00 Q1024 NOSIG
RJBB 171930Z AUTO 11005KT 9999 NCD 05/01 Q1024 NOSIG
RJBB 171900Z AUTO 12004KT 9999 NCD 05/01 Q1024 NOSIG
RJBB 171830Z AUTO 12004KT 9999 NCD 05/01 Q1024 NOSIG
RJBB 171800Z AUTO 12005KT 9999 NCD 05/01 Q1024 NOSIG
RJBB 171730Z AUTO 10004KT 9999 NCD 05/01 Q1024 NOSIG
RJBB 171700Z AUTO 12003KT 9999 NCD 05/00 Q1024 NOSIG
RJBB 171630Z AUTO 13003KT 9999 NCD 05/01 Q1024 NOSIG
RJBB 171600Z AUTO 12004KT 9999 NCD 06/01 Q1024 NOSIG
RJBB 171530Z AUTO 11005KT 9999 NCD 06/01 Q1023 NOSIG
RJBB 171500Z AUTO 10006KT 9999 NCD 06/01 Q1023 NOSIG
RJBB 171430Z AUTO 10007KT 9999 NCD 06/01 Q1023 NOSIG
RJBB 171400Z AUTO 10008KT 9999 NCD 06/01 Q1023 NOSIG
RJBB 171330Z 09006KT 9999 FEW025 06/01 Q1023 NOSIG
RJBB 171300Z 05010KT 9999 FEW025 06/01 Q1023 NOSIG
RJBB 171230Z 05009KT 9999 FEW025 06/M01 Q1023 NOSIG
RJBB 171200Z 03009KT 9999 FEW025 06/M01 Q1022 NOSIG
RJBB 171130Z 05007KT 9999 FEW025 06/M01 Q1022 NOSIG
RJBB 171100Z 06006KT 9999 FEW025 SCT050 06/M01 Q1022 NOSIG
RJBB 171030Z 05005KT 9999 FEW025 06/00 Q1022 NOSIG
RJBB 171000Z 03006KT 9999 FEW025 06/01 Q1021 NOSIG
RJBB 170930Z 36004KT 320V040 9999 FEW025 07/00 Q1021 NOSIG
RJBB 170900Z 36004KT 330V030 9999 FEW025 06/00 Q1021 NOSIG
RJBB 170830Z 36007KT 9999 FEW025 07/00 Q1020 NOSIG
RJBB 170800Z 01007KT 9999 VCSH FEW025 SCT035 BKN045 07/M00 Q1020 NOSIG
RJBB 170730Z 35005KT 310V080 9999 VCSH FEW025 SCT040 BKN060 08/00 Q1020 NOSIG
RJBB 170700Z 34004KT 310V010 9999 VCSH FEW025 BKN060 08/M00 Q1020 NOSIG
RJBB 170630Z 32003KT 9999 FEW025 SCT060 07/M01 Q1020 BECMG 34005KT
RJBB 170600Z 31004KT 260V350 9999 FEW025 SCT040 BKN060 07/M00 Q1020 NOSIG
RJBB 170530Z 31005KT 260V360 9999 -SHRA FEW025 BKN040 BKN060 08/00 Q1019 NOSIG
RJBB 170500Z 28003KT 240V320 9999 VCSH FEW025 SCT040 BKN060 08/01 Q1019 NOSIG
RJBB 170430Z 01004KT 330V050 9999 VCSH FEW025 BKN040 07/00 Q1019 NOSIG
RJBB 170400Z VRB02KT 9999 FEW025 SCT040 07/00 Q1020 NOSIG
RJBB 170330Z VRB02KT 9999 FEW025 BKN040 07/00 Q1020 NOSIG
RJBB 170300Z VRB02KT 9999 FEW025 SCT060 07/01 Q1020 NOSIG
RJBB 170230Z 36004KT 9999 FEW025 SCT035 07/00 Q1020 NOSIG
RJBB 170200Z 01005KT 270V050 9999 -SHRA FEW020 SCT030 07/00 Q1021 NOSIG
RJBB 170130Z 05004KT 010V090 9999 -SHRA FEW020 BKN030 06/00 Q1021 NOSIG
RJBB 170100Z VRB02KT 9999 -SHRA FEW020 BKN030 06/00 Q1021 BECMG 01007KT
RJBB 170030Z 05006KT 9999 VCSH FEW020 BKN030 06/00 Q1020 NOSIG
RJBB 170000Z 04006KT 360V060 9999 -SHRA FEW020 BKN030 06/01 Q1020 NOSIG
RJBB 162330Z 04005KT 350V060 9999 FEW030 BKN/// 06/01 Q1020 NOSIG
RJBB 162300Z 05009KT 9999 FEW030 BKN/// 05/00 Q1020 NOSIG
RJBB 162230Z 02004KT 330V060 9999 FEW030 SCT050 BKN/// 05/M00 Q1020 NOSIG
RJBB 162200Z 36006KT 9999 FEW030 SCT050 BKN080 05/M00 Q1019 NOSIG
RJBB 162130Z 36009KT 9999 FEW030 SCT050 BKN080 05/M01 Q1019 NOSIG
RJBB 162100Z 01010KT 9999 FEW030 SCT080 05/M01 Q1019 NOSIG
RJBB 162030Z 01011KT 9999 FEW030 SCT080 05/M01 Q1018 NOSIG
RJBB 162000Z 36012KT 9999 FEW030 SCT080 05/M01 Q1018 NOSIG